createdAt,value
2022-11-17T00:00:33.304Z,0.50
2022-11-17T00:05:40.490Z,0.50
2022-11-17T00:10:47.768Z,0.60
2022-11-17T00:15:54.753Z,0.63
2022-11-17T00:21:06.213Z,0.80
2022-11-17T00:26:14.748Z,0.60
2022-11-17T00:31:24.470Z,0.50
2022-11-17T00:36:32.156Z,0.40
2022-11-17T00:41:40.653Z,0.40
2022-11-17T00:46:48.923Z,0.50
2022-11-17T00:51:56.891Z,0.50
2022-11-17T00:57:04.182Z,0.40
2022-11-17T01:02:11.288Z,0.47
2022-11-17T01:07:19.271Z,0.50
2022-11-17T01:12:26.501Z,0.60
2022-11-17T01:17:33.457Z,0.60
2022-11-17T01:22:40.486Z,0.60
2022-11-17T01:27:49.366Z,0.53
2022-11-17T01:32:57.169Z,0.50
2022-11-17T01:38:06.845Z,0.53
2022-11-17T01:43:14.077Z,0.50
2022-11-17T01:48:21.041Z,0.50
2022-11-17T01:53:29.776Z,0.50
2022-11-17T01:58:39.876Z,0.50
2022-11-17T02:03:49.275Z,0.50
2022-11-17T02:08:57.595Z,0.50
2022-11-17T02:14:05.597Z,0.47
2022-11-17T02:19:15.833Z,0.50
2022-11-17T02:24:25.682Z,0.80
2022-11-17T02:29:35.673Z,0.60
2022-11-17T02:34:45.445Z,0.50
2022-11-17T02:39:55.300Z,0.60
2022-11-17T02:45:04.689Z,0.57
2022-11-17T02:50:12.957Z,0.50
2022-11-17T02:55:20.047Z,0.50
2022-11-17T03:00:28.892Z,0.50
2022-11-17T03:05:38.713Z,0.53
2022-11-17T03:10:46.663Z,0.70
2022-11-17T03:15:56.481Z,0.40
2022-11-17T03:21:04.598Z,0.50
2022-11-17T03:26:14.428Z,0.53
2022-11-17T03:31:23.791Z,0.60
2022-11-17T03:36:33.713Z,0.40
2022-11-17T03:41:43.499Z,0.70
2022-11-17T03:46:52.958Z,0.50
2022-11-17T03:52:00.392Z,0.50
2022-11-17T03:57:10.237Z,0.50
2022-11-17T04:02:19.902Z,0.50
2022-11-17T04:07:26.699Z,0.50
2022-11-17T04:12:35.191Z,0.63
2022-11-17T04:17:42.502Z,0.50
2022-11-17T04:22:51.119Z,0.60
2022-11-17T04:27:59.535Z,0.50
2022-11-17T04:33:06.474Z,0.60
2022-11-17T04:38:13.507Z,0.60
2022-11-17T04:43:20.648Z,0.70
2022-11-17T04:48:29.357Z,0.50
2022-11-17T04:53:36.529Z,0.50
2022-11-17T04:58:44.152Z,0.50
2022-11-17T05:03:53.456Z,0.60
2022-11-17T05:09:02.655Z,0.50
2022-11-17T05:14:09.442Z,0.50
2022-11-17T05:19:19.707Z,1.03
2022-11-17T05:24:28.184Z,0.70
2022-11-17T05:29:35.030Z,0.60
2022-11-17T05:34:41.835Z,0.67
2022-11-17T05:39:48.719Z,0.50
2022-11-17T05:44:55.728Z,0.50
2022-11-17T05:50:02.629Z,0.50
2022-11-17T05:55:09.716Z,0.70
2022-11-17T06:00:17.067Z,0.50
2022-11-17T06:05:24.160Z,0.50
2022-11-17T06:10:31.361Z,0.63
2022-11-17T06:15:38.632Z,0.47
2022-11-17T06:20:48.795Z,0.50
2022-11-17T06:25:56.262Z,0.80
2022-11-17T06:31:03.595Z,0.70
2022-11-17T06:36:11.320Z,0.60
2022-11-17T06:41:18.179Z,0.90
2022-11-17T06:46:25.330Z,0.70
2022-11-17T06:51:33.565Z,0.80
2022-11-17T06:56:41.054Z,1.00
2022-11-17T07:01:51.228Z,0.90
2022-11-17T07:06:58.271Z,0.90
2022-11-17T07:12:05.627Z,0.97
2022-11-17T07:17:12.733Z,1.03
2022-11-17T07:22:20.004Z,1.20
2022-11-17T07:27:27.126Z,0.70
2022-11-17T07:32:35.560Z,0.83
2022-11-17T07:37:42.578Z,0.80
2022-11-17T07:42:54.051Z,1.00
2022-11-17T07:48:03.391Z,1.13
2022-11-17T07:53:10.364Z,1.13
2022-11-17T07:58:17.417Z,0.80
2022-11-17T08:03:24.731Z,0.80
2022-11-17T08:08:32.117Z,0.90
2022-11-17T08:13:40.666Z,0.63
2022-11-17T08:18:52.072Z,1.27
2022-11-17T08:23:56.656Z,1.23
2022-11-17T08:29:04.721Z,1.17
2022-11-17T08:34:11.610Z,0.70
2022-11-17T08:39:18.796Z,0.70
2022-11-17T08:44:25.809Z,0.93
2022-11-17T08:49:32.659Z,0.93
2022-11-17T08:54:39.701Z,1.20
2022-11-17T08:59:46.659Z,1.20
2022-11-17T09:04:53.970Z,1.07
2022-11-17T09:10:01.306Z,1.13
2022-11-17T09:15:08.672Z,1.00
2022-11-17T09:20:16.953Z,0.80
2022-11-17T09:25:24.227Z,0.70
2022-11-17T09:30:31.083Z,0.87
2022-11-17T09:35:38.045Z,0.90
2022-11-17T09:40:45.642Z,0.80
2022-11-17T09:45:55.585Z,0.70
2022-11-17T09:51:05.768Z,0.90
2022-11-17T09:56:15.042Z,0.90
2022-11-17T10:01:23.148Z,0.80
2022-11-17T10:06:32.397Z,0.87
2022-11-17T10:11:42.249Z,1.10
2022-11-17T10:16:53.205Z,0.80
2022-11-17T10:22:03.000Z,1.00
2022-11-17T10:27:12.844Z,1.03
2022-11-17T10:32:19.768Z,1.03
2022-11-17T10:37:30.439Z,0.90
2022-11-17T10:42:37.402Z,1.10
2022-11-17T10:47:44.429Z,0.90
2022-11-17T10:52:53.805Z,1.23
2022-11-17T10:58:03.578Z,1.10
2022-11-17T11:03:13.434Z,1.07
2022-11-17T11:08:25.517Z,1.10
2022-11-17T11:13:35.376Z,1.00
2022-11-17T11:18:42.446Z,1.20
2022-11-17T11:23:52.427Z,1.30
2022-11-17T11:29:00.590Z,1.17
2022-11-17T11:34:10.559Z,1.07
2022-11-17T11:39:20.635Z,1.23
2022-11-17T11:44:30.435Z,1.20
2022-11-17T11:49:40.670Z,1.13
2022-11-17T11:54:51.252Z,1.10
2022-11-17T12:00:04.348Z,1.10
2022-11-17T12:05:16.527Z,1.30
2022-11-17T12:10:26.348Z,1.03
2022-11-17T12:15:35.932Z,1.27
2022-11-17T12:20:43.452Z,1.10
2022-11-17T12:25:54.451Z,1.10
2022-11-17T12:31:09.789Z,1.00
2022-11-17T12:36:16.101Z,1.10
2022-11-17T12:41:26.169Z,1.10
2022-11-17T12:46:34.799Z,1.20
2022-11-17T12:51:42.802Z,1.20
2022-11-17T12:56:52.706Z,1.20
2022-11-17T13:02:00.965Z,1.30
2022-11-17T13:07:11.232Z,1.13
2022-11-17T13:12:22.648Z,1.40
2022-11-17T13:17:32.875Z,1.13
2022-11-17T13:22:42.200Z,1.23
2022-11-17T13:27:56.101Z,1.47
2022-11-17T13:33:01.185Z,1.00
2022-11-17T13:38:11.360Z,1.00
2022-11-17T13:43:20.896Z,1.40
2022-11-17T13:48:30.715Z,0.97
2022-11-17T13:53:37.522Z,1.13
2022-11-17T13:58:45.964Z,1.37
2022-11-17T14:03:54.651Z,1.20
2022-11-17T14:09:04.498Z,1.60
2022-11-17T14:14:14.157Z,1.00
2022-11-17T14:19:20.578Z,1.27
2022-11-17T14:24:28.436Z,1.33
2022-11-17T14:29:36.520Z,1.13
2022-11-17T14:34:43.459Z,1.10
2022-11-17T14:39:50.404Z,1.13
2022-11-17T14:44:57.893Z,1.10
2022-11-17T14:50:04.932Z,1.03
2022-11-17T14:55:14.315Z,1.13
2022-11-17T15:00:21.647Z,1.30
2022-11-17T15:05:28.915Z,1.40
2022-11-17T15:10:36.232Z,1.20
2022-11-17T15:15:43.501Z,1.30
2022-11-17T15:20:51.797Z,1.17
2022-11-17T15:25:59.307Z,1.17
2022-11-17T15:31:09.272Z,1.20
2022-11-17T15:36:19.278Z,1.40
2022-11-17T15:41:29.893Z,1.30
2022-11-17T15:46:35.157Z,1.10
2022-11-17T15:51:42.382Z,1.30
2022-11-17T15:56:49.378Z,1.17
2022-11-17T16:01:56.171Z,1.13
2022-11-17T16:07:04.583Z,1.00
2022-11-17T16:12:11.937Z,1.40
2022-11-17T16:17:19.056Z,1.00
2022-11-17T16:22:27.371Z,1.10
2022-11-17T16:27:34.407Z,1.00
2022-11-17T16:32:41.757Z,1.13
2022-11-17T16:37:50.185Z,1.20
2022-11-17T16:42:59.652Z,1.37
2022-11-17T16:48:06.580Z,1.10
2022-11-17T16:53:14.655Z,1.30
2022-11-17T16:58:21.714Z,1.30
2022-11-17T17:03:31.439Z,1.20
2022-11-17T17:08:38.891Z,1.20
2022-11-17T17:13:45.856Z,1.97
2022-11-17T17:18:56.159Z,1.30
2022-11-17T17:24:03.428Z,1.30
2022-11-17T17:29:11.944Z,1.10
2022-11-17T17:34:20.000Z,1.10
2022-11-17T17:39:26.904Z,1.00
2022-11-17T17:44:33.992Z,1.03
2022-11-17T17:49:40.964Z,1.13
2022-11-17T17:54:48.651Z,1.30
2022-11-17T17:59:55.788Z,1.00
2022-11-17T18:05:04.520Z,1.13
2022-11-17T18:10:11.388Z,1.47
2022-11-17T18:15:18.328Z,1.10
2022-11-17T18:20:25.526Z,1.20
2022-11-17T18:25:33.950Z,1.00
2022-11-17T18:30:41.283Z,1.30
2022-11-17T18:35:48.577Z,1.10
2022-11-17T18:40:59.713Z,1.07
2022-11-17T18:46:07.693Z,1.07
2022-11-17T18:51:19.606Z,1.00
2022-11-17T18:56:28.958Z,1.57
2022-11-17T19:01:35.911Z,1.30
2022-11-17T19:06:43.857Z,1.20
2022-11-17T19:11:51.158Z,1.30
2022-11-17T19:16:58.114Z,1.30
2022-11-17T19:22:05.117Z,1.27
2022-11-17T19:27:12.081Z,1.33
2022-11-17T19:32:18.971Z,0.70
2022-11-17T19:37:26.201Z,0.60
2022-11-17T19:42:33.833Z,0.90
2022-11-17T19:47:42.662Z,0.70
2022-11-17T19:52:52.273Z,0.73
2022-11-17T19:58:00.277Z,0.60
2022-11-17T20:03:08.769Z,0.50
2022-11-17T20:08:20.070Z,0.60
2022-11-17T20:13:29.922Z,0.67
2022-11-17T20:18:36.882Z,0.60
2022-11-17T20:23:46.481Z,0.70
2022-11-17T20:28:56.051Z,0.70
2022-11-17T20:34:05.767Z,0.80
2022-11-17T20:39:14.450Z,0.80
2022-11-17T20:44:23.231Z,0.80
2022-11-17T20:49:31.078Z,1.00
2022-11-17T20:54:44.626Z,0.80
2022-11-17T20:59:53.893Z,0.87
2022-11-17T21:05:11.066Z,0.83
2022-11-17T21:10:18.181Z,0.80
2022-11-17T21:15:25.280Z,0.50
2022-11-17T21:20:33.783Z,0.50
2022-11-17T21:25:41.919Z,0.50
2022-11-17T21:30:48.847Z,0.50
2022-11-17T21:35:58.896Z,0.73
2022-11-17T21:41:08.360Z,0.57
2022-11-17T21:46:18.205Z,0.53
2022-11-17T21:51:30.640Z,0.50
2022-11-17T21:56:38.673Z,0.50
2022-11-17T22:01:45.521Z,0.60
2022-11-17T22:06:52.510Z,0.53
2022-11-17T22:11:59.523Z,0.70
2022-11-17T22:17:06.507Z,0.70
2022-11-17T22:22:13.451Z,0.60
2022-11-17T22:27:21.952Z,0.70
2022-11-17T22:32:29.057Z,0.60
2022-11-17T22:37:36.344Z,0.70
2022-11-17T22:42:43.204Z,0.70
2022-11-17T22:47:50.178Z,0.70
2022-11-17T22:52:57.277Z,0.80
2022-11-17T22:58:04.720Z,0.70
2022-11-17T23:03:12.684Z,0.70
2022-11-17T23:08:19.595Z,0.60
2022-11-17T23:13:26.576Z,0.60
2022-11-17T23:18:34.042Z,1.20
2022-11-17T23:23:42.954Z,0.63
2022-11-17T23:28:50.672Z,0.73
2022-11-17T23:33:58.842Z,0.70
2022-11-17T23:39:06.756Z,0.80
2022-11-17T23:44:14.709Z,0.70
2022-11-17T23:49:23.035Z,0.83
2022-11-17T23:54:30.433Z,0.83
2022-11-17T23:59:37.559Z,0.77
